createdAt,value
2022-08-26T06:55:15.783Z,1.05
2022-08-26T06:57:42.593Z,0.90
2022-08-26T07:00:13.403Z,1.10
2022-08-26T07:02:40.938Z,1.00
2022-08-26T07:05:14.157Z,0.93
2022-08-26T07:07:41.000Z,0.77
2022-08-26T07:10:12.657Z,1.27
2022-08-26T07:12:39.815Z,1.20
2022-08-26T07:15:11.986Z,1.10
2022-08-26T07:17:39.324Z,1.20
2022-08-26T07:20:09.133Z,1.10
2022-08-26T07:22:37.103Z,1.02
2022-08-26T07:25:08.870Z,0.70
2022-08-26T07:27:37.141Z,1.17
2022-08-26T07:30:08.788Z,1.10
2022-08-26T07:32:37.696Z,1.10
2022-08-26T07:35:06.378Z,0.85
2022-08-26T07:37:35.467Z,0.80
2022-08-26T07:40:09.876Z,0.82
2022-08-26T07:42:36.862Z,1.40
2022-08-26T07:45:05.115Z,0.98
2022-08-26T07:47:32.570Z,1.10
2022-08-26T07:50:14.481Z,1.10
2022-08-26T07:52:43.359Z,1.25
2022-08-26T07:55:11.014Z,1.30
2022-08-26T07:57:44.333Z,0.77
2022-08-26T08:00:14.735Z,0.80
2022-08-26T08:02:43.410Z,1.20
2022-08-26T08:05:12.112Z,1.08
2022-08-26T08:07:45.262Z,1.17
2022-08-26T08:10:25.163Z,1.17
2022-08-26T08:12:54.235Z,0.98
2022-08-26T08:15:25.182Z,1.00
2022-08-26T08:17:52.355Z,1.00
2022-08-26T08:20:19.875Z,1.10
2022-08-26T08:22:46.825Z,1.00
2022-08-26T08:25:14.897Z,1.10
2022-08-26T08:27:46.352Z,0.93
2022-08-26T08:30:15.748Z,0.80
2022-08-26T08:32:49.855Z,0.63
2022-08-26T08:35:18.659Z,1.13
2022-08-26T08:37:46.187Z,1.00
2022-08-26T08:40:16.575Z,0.77
2022-08-26T08:43:06.921Z,0.77
2022-08-26T08:45:42.233Z,0.90
2022-08-26T08:48:15.251Z,1.00
2022-08-26T08:50:46.601Z,1.13
2022-08-26T08:53:23.185Z,1.02
2022-08-26T08:56:05.693Z,1.00
2022-08-26T08:58:53.733Z,0.82
2022-08-26T09:01:47.497Z,0.90
2022-08-26T09:04:41.180Z,1.02
2022-08-26T09:07:15.288Z,0.93
2022-08-26T09:09:51.541Z,1.00
2022-08-26T09:12:29.164Z,0.80
2022-08-26T09:15:16.569Z,1.02
2022-08-26T09:17:55.490Z,0.90
2022-08-26T09:20:33.916Z,1.10
2022-08-26T09:23:00.852Z,0.57
2022-08-26T09:25:28.208Z,0.90
2022-08-26T09:27:55.351Z,0.65
2022-08-26T09:30:31.158Z,0.70
2022-08-26T09:33:10.915Z,0.50
2022-08-26T09:35:40.779Z,0.70
2022-08-26T09:38:27.985Z,0.55
2022-08-26T09:41:00.865Z,1.02
2022-08-26T09:43:28.944Z,1.20
2022-08-26T09:46:21.573Z,0.93
2022-08-26T09:48:48.629Z,0.63
2022-08-26T09:51:26.435Z,0.80
2022-08-26T09:54:02.282Z,0.80
2022-08-26T09:56:35.061Z,0.75
2022-08-26T09:59:07.183Z,0.80
2022-08-26T10:01:46.931Z,0.80
2022-08-26T10:04:23.452Z,0.60
2022-08-26T10:07:07.393Z,1.10
2022-08-26T10:09:40.896Z,0.63
2022-08-26T10:12:17.584Z,1.05
2022-08-26T10:14:56.609Z,0.73
2022-08-26T10:17:54.770Z,0.82
2022-08-26T10:20:26.529Z,0.80
2022-08-26T10:22:59.307Z,0.68
2022-08-26T10:25:32.092Z,0.85
2022-08-26T10:28:11.934Z,0.80
2022-08-26T10:30:47.187Z,1.00
2022-08-26T10:33:15.554Z,1.08
2022-08-26T10:35:52.942Z,1.00
2022-08-26T10:38:34.233Z,0.65
2022-08-26T10:41:14.347Z,0.65
2022-08-26T10:43:52.480Z,0.85
2022-08-26T10:46:27.056Z,0.82
2022-08-26T10:49:11.630Z,0.75
2022-08-26T10:52:02.913Z,0.88
2022-08-26T10:55:05.147Z,1.02
2022-08-26T10:58:05.001Z,0.50
2022-08-26T11:01:01.978Z,0.77
2022-08-26T11:03:47.934Z,0.60
2022-08-26T11:06:26.955Z,0.80
2022-08-26T11:09:02.474Z,0.55
2022-08-26T11:11:41.618Z,0.55
2022-08-26T11:14:28.355Z,0.43
2022-08-26T11:16:57.515Z,0.88
2022-08-26T11:19:50.579Z,0.70
2022-08-26T11:22:36.226Z,0.98
2022-08-26T11:25:11.425Z,0.60
2022-08-26T11:27:38.650Z,0.57
2022-08-26T11:30:21.170Z,0.85
2022-08-26T11:32:54.976Z,0.70
2022-08-26T11:35:23.349Z,0.82
2022-08-26T11:38:29.105Z,0.55
2022-08-26T11:41:09.982Z,1.15
2022-08-26T11:43:38.757Z,0.98
2022-08-26T11:46:09.173Z,0.60
2022-08-26T11:48:37.567Z,0.98
2022-08-26T11:51:09.151Z,0.80
2022-08-26T11:53:39.552Z,0.90
2022-08-26T11:56:11.101Z,0.88
2022-08-26T11:58:45.111Z,0.70
2022-08-26T12:01:21.481Z,0.57
2022-08-26T12:03:51.695Z,0.85
2022-08-26T12:06:37.693Z,0.77
2022-08-26T12:09:20.396Z,0.50
2022-08-26T12:11:47.340Z,0.57
2022-08-26T12:14:24.328Z,0.70
2022-08-26T12:16:54.222Z,0.60
2022-08-26T12:19:32.886Z,0.80
2022-08-26T12:22:25.800Z,0.75
2022-08-26T12:25:07.611Z,0.70
2022-08-26T12:27:37.423Z,0.80
2022-08-26T12:30:26.519Z,0.73
2022-08-26T12:33:22.160Z,0.90
2022-08-26T12:35:56.359Z,1.02
2022-08-26T12:38:25.629Z,0.95
2022-08-26T12:40:53.906Z,1.13
2022-08-26T12:43:40.907Z,0.70
2022-08-26T12:46:11.451Z,0.60
2022-08-26T12:48:42.886Z,0.93
2022-08-26T12:51:24.798Z,1.13
2022-08-26T12:53:52.251Z,0.80
2022-08-26T12:56:36.295Z,0.73
2022-08-26T12:59:25.185Z,0.80
2022-08-26T13:01:54.461Z,0.93
2022-08-26T13:04:38.906Z,0.90
2022-08-26T13:07:14.047Z,1.17
2022-08-26T13:09:41.414Z,0.75
2022-08-26T13:12:11.810Z,0.80
2022-08-26T13:14:40.517Z,1.13
2022-08-26T13:17:07.856Z,0.90
2022-08-26T13:19:34.826Z,0.98
2022-08-26T13:22:02.071Z,0.75
2022-08-26T13:24:32.484Z,0.93
2022-08-26T13:26:59.537Z,0.77
2022-08-26T13:29:27.488Z,0.77
2022-08-26T13:31:56.114Z,0.70
2022-08-26T13:34:25.070Z,0.88
2022-08-26T13:36:54.980Z,1.08
2022-08-26T13:39:23.050Z,0.60
2022-08-26T13:41:50.316Z,1.00
2022-08-26T13:44:17.657Z,0.70
2022-08-26T13:49:12.685Z,1.00
2022-08-26T13:51:40.537Z,0.73
2022-08-26T13:54:08.102Z,1.05
2022-08-26T13:56:36.389Z,0.60
2022-08-26T13:59:03.736Z,1.00
2022-08-26T14:01:32.635Z,1.02
2022-08-26T14:03:59.993Z,0.88
2022-08-26T14:06:27.119Z,0.70
2022-08-26T14:08:54.164Z,0.70
2022-08-26T14:11:21.565Z,0.77
2022-08-26T14:13:48.771Z,0.82
2022-08-26T14:16:24.769Z,0.90
2022-08-26T14:19:16.565Z,0.90
2022-08-26T14:21:47.189Z,0.90
2022-08-26T14:24:14.231Z,1.00
2022-08-26T14:26:47.341Z,0.80
2022-08-26T14:29:22.875Z,1.15
2022-08-26T14:31:49.832Z,0.90
2022-08-26T14:34:16.882Z,0.80
2022-08-26T14:36:43.926Z,0.82
2022-08-26T14:39:50.533Z,0.93
2022-08-26T14:42:22.563Z,1.00
2022-08-26T14:44:55.549Z,1.00
2022-08-26T14:50:30.080Z,0.85
2022-08-26T14:53:18.831Z,0.98
2022-08-26T14:55:46.401Z,0.60
2022-08-26T14:58:13.344Z,0.90
2022-08-26T15:00:40.405Z,1.17
2022-08-26T15:03:07.380Z,0.93
2022-08-26T15:05:34.694Z,0.82
2022-08-26T15:08:02.704Z,1.23
2022-08-26T15:10:29.895Z,1.05
2022-08-26T15:12:56.957Z,1.17
2022-08-26T15:15:25.114Z,0.88
2022-08-26T15:17:52.285Z,1.17
2022-08-26T15:20:19.555Z,1.08
2022-08-26T15:22:49.342Z,1.40
2022-08-26T15:25:18.218Z,1.45
2022-08-26T15:27:45.487Z,1.30
2022-08-26T15:30:13.351Z,0.93
2022-08-26T15:32:40.703Z,1.15
2022-08-26T15:35:09.304Z,1.20
2022-08-26T15:37:36.863Z,0.98
2022-08-26T15:40:05.026Z,1.17
2022-08-26T15:42:32.080Z,1.35
2022-08-26T15:44:59.218Z,0.93
2022-08-26T15:47:26.167Z,1.02
2022-08-26T15:49:55.473Z,1.10
2022-08-26T15:52:22.412Z,1.20
2022-08-26T15:54:49.541Z,1.25
2022-08-26T15:57:20.394Z,1.73
2022-08-26T15:59:47.343Z,1.15
2022-08-26T16:02:14.851Z,1.30
2022-08-26T16:04:41.947Z,1.08
2022-08-26T16:07:10.531Z,1.20
2022-08-26T16:09:40.545Z,1.60
2022-08-26T16:12:07.756Z,1.50
2022-08-26T16:14:37.282Z,1.30
2022-08-26T16:17:04.276Z,1.38
2022-08-26T16:19:31.195Z,1.35
2022-08-26T16:21:58.142Z,1.25
2022-08-26T16:24:30.179Z,1.73
2022-08-26T16:26:57.965Z,1.35
2022-08-26T16:29:25.015Z,0.85
2022-08-26T16:31:53.387Z,1.20
2022-08-26T16:34:21.436Z,1.83
2022-08-26T16:36:48.400Z,1.10
2022-08-26T16:39:16.478Z,1.25
2022-08-26T16:41:44.465Z,0.80
2022-08-26T16:44:12.004Z,1.05
2022-08-26T16:46:39.867Z,1.30
2022-08-26T16:49:06.882Z,1.00
2022-08-26T16:51:40.010Z,0.80
2022-08-26T16:54:11.142Z,1.27
2022-08-26T16:56:38.305Z,0.90
2022-08-26T16:59:07.495Z,1.10
2022-08-26T17:01:34.718Z,1.13
2022-08-26T17:04:01.804Z,1.33
2022-08-26T17:06:31.494Z,1.35
2022-08-26T17:08:58.539Z,1.00
2022-08-26T17:11:27.750Z,1.00
2022-08-26T17:13:57.559Z,2.25
2022-08-26T17:16:26.841Z,2.90
2022-08-26T17:18:56.356Z,2.00
2022-08-26T17:21:23.416Z,1.00
2022-08-26T17:23:53.615Z,1.30
2022-08-26T17:26:20.658Z,1.20
2022-08-26T17:28:47.625Z,1.15
2022-08-26T17:31:14.817Z,1.00
2022-08-26T17:33:41.902Z,1.05
2022-08-26T17:36:12.636Z,1.60
2022-08-26T17:38:42.647Z,1.33
2022-08-26T17:41:14.117Z,1.23
2022-08-26T17:43:41.810Z,1.30
2022-08-26T17:46:13.468Z,1.30
2022-08-26T17:48:42.208Z,1.30
2022-08-26T17:51:14.479Z,1.23
2022-08-26T17:53:41.637Z,1.08
2022-08-26T17:56:13.727Z,1.20
2022-08-26T17:58:41.356Z,1.17
2022-08-26T18:01:18.910Z,1.02
2022-08-26T18:03:46.164Z,1.02
2022-08-26T18:06:13.755Z,1.05
2022-08-26T18:08:41.420Z,1.13
2022-08-26T18:11:20.033Z,1.20
2022-08-26T18:13:51.704Z,1.25
2022-08-26T18:16:19.669Z,1.20
2022-08-26T18:18:49.980Z,1.10
2022-08-26T18:21:19.998Z,1.08
2022-08-26T18:23:47.675Z,1.30
2022-08-26T18:26:21.677Z,1.17
2022-08-26T18:31:15.814Z,1.00
2022-08-26T18:33:43.230Z,1.27
2022-08-26T18:36:22.354Z,1.13
2022-08-26T18:38:50.823Z,1.30
2022-08-26T18:41:20.991Z,1.00
2022-08-26T18:43:50.556Z,1.17
2022-08-26T18:46:18.494Z,1.20
2022-08-26T18:48:45.382Z,1.15
2022-08-26T18:51:22.885Z,1.30
2022-08-26T18:53:50.317Z,1.33
2022-08-26T18:56:20.958Z,1.40
2022-08-26T18:58:48.304Z,1.17
2022-08-26T19:01:16.976Z,1.48
2022-08-26T19:03:45.363Z,1.52
2022-08-26T19:06:17.235Z,1.20
2022-08-26T19:08:45.005Z,1.35
2022-08-26T19:11:12.551Z,1.60
2022-08-26T19:13:42.470Z,1.73
2022-08-26T19:16:16.246Z,1.50
2022-08-26T19:18:43.332Z,1.52
2022-08-26T19:21:10.171Z,1.60
2022-08-26T19:23:37.466Z,1.60
2022-08-26T19:26:06.571Z,1.92
2022-08-26T19:28:33.691Z,1.00
2022-08-26T19:31:00.816Z,1.50
2022-08-26T19:33:28.286Z,1.55
2022-08-26T19:35:55.645Z,1.75
2022-08-26T19:38:27.832Z,1.40
2022-08-26T19:40:54.732Z,1.30
2022-08-26T19:43:21.692Z,1.48
2022-08-26T19:45:49.703Z,1.35
2022-08-26T19:48:16.998Z,1.30
2022-08-26T19:50:46.302Z,1.25
2022-08-26T19:53:13.245Z,1.50
2022-08-26T19:55:40.108Z,1.30
2022-08-26T19:58:07.960Z,1.30
2022-08-26T20:00:39.002Z,1.20
2022-08-26T20:03:05.896Z,1.30
2022-08-26T20:05:37.603Z,1.67
2022-08-26T20:08:04.451Z,1.65
2022-08-26T20:10:31.381Z,1.33
2022-08-26T20:12:58.533Z,1.20
2022-08-26T20:15:25.475Z,1.50
2022-08-26T20:17:55.902Z,1.17
2022-08-26T20:20:41.383Z,1.38
2022-08-26T20:23:10.708Z,1.17
2022-08-26T20:25:37.651Z,1.48
2022-08-26T20:28:05.315Z,1.40
2022-08-26T20:30:32.267Z,1.33
2022-08-26T20:32:59.401Z,1.70
2022-08-26T20:35:26.352Z,1.50
2022-08-26T20:37:53.394Z,1.70
